This is the latest recevied weather packets stored in our database for station/object TA3HRJ-12. If no packets are shown the sender has not sent any weather packets the latest 10 day(s).
| Time | Temp. | Humidity | Pressure | Rain* | Wind** | Luminosity | Snow |
|---|---|---|---|---|---|---|---|
| 1778239561 | 31.67° C | 13% | 1032.1 hPa | - | - | - | - |
| 1778238661 | 31.11° C | 12% | 1032.1 hPa | - | - | - | - |
| 1778237761 | 29.44° C | 14% | 1032.4 hPa | - | - | - | - |
| 1778236861 | 30° C | 12% | 1032.4 hPa | - | - | - | - |
| 1778235961 | 31.11° C | 12% | 1032.4 hPa | - | - | - | - |
| 1778235061 | 30° C | 14% | 1032.4 hPa | - | - | - | - |
| 1778234161 | 29.44° C | 16% | 1032.5 hPa | - | - | - | - |
| 1778233261 | 28.89° C | 16% | 1032.6 hPa | - | - | - | - |
| 1778232360 | 28.89° C | 14% | 1032.7 hPa | - | - | - | - |
| 1778231460 | 28.89° C | 17% | 1032.7 hPa | - | - | - | - |
| 1778230560 | 30.56° C | 15% | 1032.8 hPa | - | - | - | - |
| 1778229660 | 28.33° C | 16% | 1032.9 hPa | - | - | - | - |
| 1778228760 | 28.89° C | 17% | 1032.8 hPa | - | - | - | - |
| 1778227860 | 27.78° C | 19% | 1033 hPa | - | - | - | - |
| 1778226960 | 27.78° C | 20% | 1033.1 hPa | - | - | - | - |
| 1778226059 | 27.78° C | 19% | 1033.2 hPa | - | - | - | - |
| 1778225159 | 26.67° C | 22% | 1033.2 hPa | - | - | - | - |
| 1778224259 | 27.78° C | 20% | 1033.1 hPa | - | - | - | - |
| 1778223359 | 28.89° C | 20% | 1033.1 hPa | - | - | - | - |
| 1778222459 | 28.89° C | 20% | 1033.1 hPa | - | - | - | - |
| 1778221559 | 26.67° C | 22% | 1033.2 hPa | - | - | - | - |
| 1778220659 | 25.56° C | 24% | 1033.2 hPa | - | - | - | - |
| 1778219759 | 25° C | 25% | 1033.2 hPa | - | - | - | - |
| 1778218859 | 26.11° C | 24% | 1033 hPa | - | - | - | - |
| 1778217959 | 25.56° C | 25% | 1033.1 hPa | - | - | - | - |
* Rain since midnight (hover to see other rain measurements)
** Current wind speed in m/s (hover to see current wind gust speed)